Time;durP1;ratioP1;P1;durP2;ratioP2;P2;SDS_P1;SDS_P2;PMS_P1;PMS_P2;Temp;Humidity;BMP_temperature;BMP_pressure;BME280_temperature;BME280_humidity;BME280_pressure;Samples;Min_cycle;Max_cycle;Signal;HPM_P1;HPM_P2
2022/08/08 00:00:51;;;;;;;;;;;14.60;99.90;;;;;;5008109;28;20029;-57
2022/08/08 00:03:24;;;;;;;3.20;2.40;;;14.60;99.90;;;;;;4997689;28;20373;-58
2022/08/08 00:05:55;;;;;;;;;;;14.60;99.90;;;;;;5008830;28;20033;-58
2022/08/08 00:08:25;;;;;;;3.08;2.28;;;14.60;99.90;;;;;;5003518;28;19959;-57
2022/08/08 00:11:05;;;;;;;4.82;2.28;;;14.50;99.90;;;;;;5006027;28;20544;-57
2022/08/08 00:14:21;;;;;;;3.78;2.33;;;14.50;99.90;;;;;;5005273;28;20068;-57
2022/08/08 00:17:22;;;;;;;3.05;2.00;;;14.40;99.90;;;;;;4911312;29;20067;-57
2022/08/08 00:20:09;;;;;;;2.60;1.88;;;14.40;99.90;;;;;;4905702;29;20541;-57
2022/08/08 00:22:51;;;;;;;4.32;2.20;;;14.30;99.90;;;;;;4907445;29;20044;-58
2022/08/08 00:25:41;;;;;;;2.88;2.22;;;14.30;99.90;;;;;;4904653;29;20047;-58
2022/08/08 00:28:12;;;;;;;5.53;2.15;;;14.20;99.90;;;;;;4897005;29;20084;-58
2022/08/08 00:30:47;;;;;;;4.07;2.55;;;14.20;99.90;;;;;;4910594;29;20576;-58
2022/08/08 00:33:20;;;;;;;3.58;2.33;;;14.10;99.90;;;;;;4903691;29;20103;-58
2022/08/08 00:35:49;;;;;;;4.13;2.28;;;14.10;99.90;;;;;;4909220;29;20437;-58
2022/08/08 00:38:41;;;;;;;3.80;2.30;;;14.10;99.90;;;;;;4908766;29;20072;-58
2022/08/08 00:41:12;;;;;;;3.08;2.22;;;14.10;99.90;;;;;;4918466;29;20032;-63
2022/08/08 00:44:05;;;;;;;4.85;2.40;;;14.00;99.90;;;;;;4912097;29;20048;-58
2022/08/08 00:46:45;;;;;;;6.88;2.30;;;14.10;99.90;;;;;;4920171;29;20036;-58
2022/08/08 00:49:16;;;;;;;3.95;3.00;;;14.10;99.90;;;;;;4909919;29;20087;-58
2022/08/08 00:51:46;;;;;;;5.05;2.95;;;14.00;99.90;;;;;;5014802;28;20033;-57
2022/08/08 00:54:42;;;;;;;5.43;2.70;;;13.90;99.90;;;;;;5010694;28;20030;-58
2022/08/08 00:57:41;;;;;;;2.85;2.50;;;13.80;99.90;;;;;;5011770;28;20022;-58
2022/08/08 01:00:29;;;;;;;3.15;2.40;;;13.70;99.90;;;;;;5009529;28;20060;-59
2022/08/08 01:03:32;;;;;;;8.95;2.20;;;13.60;99.90;;;;;;5013127;28;20079;-59
2022/08/08 01:06:17;;;;;;;4.32;2.75;;;13.60;99.90;;;;;;5019216;28;20558;-59
2022/08/08 01:08:59;;;;;;;3.58;2.25;;;13.60;99.90;;;;;;5014636;28;20061;-56
2022/08/08 01:11:37;;;;;;;3.85;2.60;;;13.60;99.90;;;;;;5012983;28;20410;-59
2022/08/08 01:14:25;;;;;;;3.00;2.63;;;13.70;99.90;;;;;;5007911;28;20482;-57
2022/08/08 01:17:15;;;;;;;6.18;2.95;;;13.60;99.90;;;;;;5014942;28;20029;-58
2022/08/08 01:19:40;;;;;;;3.08;2.28;;;13.50;99.90;;;;;;5001342;28;20034;-57
2022/08/08 01:22:15;;;;;;;3.65;2.85;;;13.50;99.90;;;;;;5015306;28;20041;-60
2022/08/08 01:24:55;;;;;;;4.65;2.70;;;13.40;99.90;;;;;;5010391;28;20068;-58
2022/08/08 01:27:27;;;;;;;3.65;3.00;;;13.40;99.90;;;;;;5020972;28;20494;-58
2022/08/08 01:30:45;;;;;;;3.92;3.03;;;13.40;99.90;;;;;;5015683;28;20030;-58
2022/08/08 01:33:16;;;;;;;5.65;3.10;;;13.30;99.90;;;;;;5006636;28;20041;-58
2022/08/08 01:36:09;;;;;;;5.95;3.10;;;13.30;99.90;;;;;;5006579;28;20034;-59
2022/08/08 01:38:37;;;;;;;;;;;13.30;99.90;;;;;;5017516;28;20036;-60
2022/08/08 01:41:37;;;;;;;4.57;3.17;;;13.20;99.90;;;;;;5017060;28;20000;-60
2022/08/08 01:44:29;;;;;;;4.57;3.05;;;13.10;99.90;;;;;;5005752;28;20042;-58
2022/08/08 01:47:13;;;;;;;;;;;13.00;99.90;;;;;;5010464;28;20030;-59
2022/08/08 01:50:05;;;;;;;3.85;2.78;;;13.00;99.90;;;;;;5010542;28;19917;-57
2022/08/08 01:52:59;;;;;;;4.45;2.85;;;13.00;99.90;;;;;;5008357;28;20453;-58
2022/08/08 01:55:27;;;;;;;6.10;2.83;;;13.00;99.90;;;;;;5016136;28;20474;-57
2022/08/08 01:58:30;;;;;;;5.70;2.92;;;13.00;99.90;;;;;;5020312;28;20121;-57
2022/08/08 02:01:07;;;;;;;4.32;2.60;;;13.10;99.90;;;;;;5014924;28;20034;-58
2022/08/08 02:03:57;;;;;;;5.28;2.70;;;13.10;99.90;;;;;;5015349;28;20719;-57
2022/08/08 02:06:49;;;;;;;5.50;2.78;;;13.00;99.90;;;;;;5009955;28;20445;-58
2022/08/08 02:09:43;;;;;;;5.15;2.65;;;13.00;99.90;;;;;;5015698;28;20029;-57
2022/08/08 02:12:32;;;;;;;3.05;2.50;;;12.90;99.90;;;;;;5012511;28;20052;-59
2022/08/08 02:15:15;;;;;;;3.10;2.75;;;12.90;99.90;;;;;;5003230;28;20129;-58
2022/08/08 02:17:46;;;;;;;4.65;2.70;;;12.80;99.90;;;;;;5005839;28;20108;-57
2022/08/08 02:20:18;;;;;;;5.13;2.93;;;12.90;99.90;;;;;;5009955;28;20030;-59
2022/08/08 02:23:08;;;;;;;4.15;2.72;;;12.80;99.90;;;;;;5018189;28;20030;-58
2022/08/08 02:25:54;;;;;;;5.38;3.08;;;12.70;99.90;;;;;;5009189;28;20434;-57
2022/08/08 02:28:57;;;;;;;2.55;2.35;;;12.70;99.90;;;;;;5015277;28;20037;-59
2022/08/08 02:31:39;;;;;;;3.03;2.30;;;12.70;99.90;;;;;;5015583;28;20021;-57
2022/08/08 02:34:15;;;;;;;4.57;2.58;;;12.70;99.90;;;;;;5006816;28;20034;-59
2022/08/08 02:36:50;;;;;;;7.07;3.65;;;12.70;99.90;;;;;;5012707;28;20381;-60
2022/08/08 02:39:54;;;;;;;5.90;3.63;;;12.70;99.90;;;;;;5008855;28;20026;-58
2022/08/08 02:43:06;;;;;;;6.25;2.75;;;12.60;99.90;;;;;;4996953;28;20038;-59
2022/08/08 02:45:50;;;;;;;4.38;2.55;;;12.60;99.90;;;;;;4984119;28;20081;-59
2022/08/08 02:49:06;;;;;;;5.30;3.40;;;12.50;99.90;;;;;;5008495;28;20033;-58
2022/08/08 02:51:57;;;;;;;6.10;3.17;;;12.50;99.90;;;;;;4968059;28;20074;-59
2022/08/08 02:54:36;;;;;;;5.80;4.22;;;12.50;99.90;;;;;;4967392;28;20031;-58
2022/08/08 02:57:16;;;;;;;3.78;3.00;;;12.40;99.90;;;;;;4966648;28;20047;-58
2022/08/08 03:00:12;;;;;;;7.90;3.17;;;12.40;99.90;;;;;;4964596;28;20469;-59
2022/08/08 03:03:08;;;;;;;7.40;3.47;;;12.50;99.90;;;;;;4949061;28;20391;-58
2022/08/08 03:06:11;;;;;;;7.97;4.00;;;12.40;99.90;;;;;;4968759;28;20499;-57
2022/08/08 03:08:45;;;;;;;;;;;12.30;99.90;;;;;;4967416;28;20047;-58
2022/08/08 03:11:38;;;;;;;4.25;2.60;;;12.40;99.90;;;;;;4965215;28;19941;-58
2022/08/08 03:14:15;;;;;;;4.13;3.10;;;12.30;99.90;;;;;;4960684;28;20069;-57
2022/08/08 03:17:07;;;;;;;4.63;3.25;;;12.20;99.90;;;;;;4958860;28;20082;-56
2022/08/08 03:19:45;;;;;;;3.88;3.25;;;12.10;99.90;;;;;;4941651;29;20040;-58
2022/08/08 03:22:11;;;;;;;6.57;3.83;;;12.00;99.90;;;;;;4961303;28;20049;-58
2022/08/08 03:24:37;;;;;;;4.70;3.35;;;11.90;99.90;;;;;;5018954;28;20033;-58
2022/08/08 03:27:19;;;;;;;4.47;3.35;;;11.90;99.90;;;;;;5014239;28;20022;-58
2022/08/08 03:29:51;;;;;;;4.95;2.83;;;11.90;99.90;;;;;;5015199;28;20107;-57
2022/08/08 03:35:04;;;;;;;4.60;2.63;;;12.00;99.90;;;;;;5011454;28;20393;-57
2022/08/08 03:37:33;;;;;;;2.83;2.55;;;12.00;99.90;;;;;;5014085;28;20109;-58
2022/08/08 03:40:00;;;;;;;4.78;3.28;;;11.90;99.90;;;;;;5007878;28;20129;-58
2022/08/08 03:42:26;;;;;;;4.68;3.08;;;12.00;99.90;;;;;;5012489;28;20042;-57
2022/08/08 03:44:51;;;;;;;4.65;3.05;;;12.00;99.90;;;;;;5008400;28;20030;-57
2022/08/08 03:47:21;;;;;;;3.15;2.70;;;12.00;99.90;;;;;;5013869;28;20050;-57
2022/08/08 03:49:48;;;;;;;5.80;3.50;;;12.00;99.90;;;;;;5009012;28;20032;-57
2022/08/08 03:52:14;;;;;;;4.72;3.00;;;12.00;99.90;;;;;;5009197;28;20026;-58
2022/08/08 03:54:44;;;;;;;4.55;3.13;;;12.00;99.90;;;;;;5015811;28;20068;-57
2022/08/08 03:57:14;;;;;;;8.73;3.17;;;12.00;99.90;;;;;;5011669;28;20121;-57
2022/08/08 03:59:40;;;;;;;3.35;2.85;;;12.00;99.90;;;;;;5014442;28;20038;-58
2022/08/08 04:02:18;;;;;;;5.15;3.03;;;12.00;99.90;;;;;;5011625;28;20402;-57
2022/08/08 04:04:45;;;;;;;4.53;3.17;;;12.00;99.90;;;;;;5018520;28;20426;-59
2022/08/08 04:07:11;;;;;;;6.65;3.72;;;12.00;99.90;;;;;;5008502;28;20112;-57
2022/08/08 04:09:37;;;;;;;5.50;2.92;;;12.00;99.90;;;;;;5014087;28;20121;-57
2022/08/08 04:12:04;;;;;;;4.30;3.13;;;12.00;99.90;;;;;;5020511;28;20033;-58
2022/08/08 04:14:30;;;;;;;4.65;3.67;;;11.90;99.90;;;;;;5014779;28;20506;-58
2022/08/08 04:16:55;;;;;;;4.25;3.72;;;11.90;99.90;;;;;;5015337;28;20045;-58
2022/08/08 04:19:21;;;;;;;5.38;3.47;;;11.80;99.90;;;;;;5012604;28;20034;-60
2022/08/08 04:21:47;;;;;;;5.32;3.30;;;11.80;99.90;;;;;;5011153;28;20033;-59
2022/08/08 04:24:12;;;;;;;4.80;3.28;;;11.80;99.90;;;;;;5012317;28;20056;-58
2022/08/08 04:26:38;;;;;;;5.85;3.15;;;11.80;99.90;;;;;;5019397;28;20038;-57
2022/08/08 04:29:04;;;;;;;4.47;3.30;;;11.90;99.90;;;;;;5015266;28;20040;-58
2022/08/08 04:31:30;;;;;;;4.03;2.95;;;11.80;99.90;;;;;;5023333;28;20033;-59
2022/08/08 04:33:56;;;;;;;6.82;3.80;;;11.80;99.90;;;;;;5017862;28;20041;-59
2022/08/08 04:36:22;;;;;;;5.90;3.65;;;11.80;99.90;;;;;;5018621;28;20017;-57
2022/08/08 04:38:47;;;;;;;4.75;3.22;;;11.90;99.90;;;;;;5018784;28;20049;-57
2022/08/08 04:41:13;;;;;;;4.20;3.47;;;11.90;99.90;;;;;;5013078;28;20028;-58
2022/08/08 04:43:39;;;;;;;6.03;3.60;;;11.90;99.90;;;;;;5017578;28;20128;-56
2022/08/08 04:46:05;;;;;;;6.65;3.55;;;11.90;99.90;;;;;;5016755;28;20030;-58
2022/08/08 04:48:30;;;;;;;5.00;3.30;;;11.90;99.90;;;;;;5021293;28;20041;-56
2022/08/08 04:50:56;;;;;;;7.38;3.90;;;11.90;99.90;;;;;;5016742;28;20021;-57
2022/08/08 04:53:22;;;;;;;5.35;3.08;;;11.90;99.90;;;;;;5015069;28;20068;-57
2022/08/08 04:55:47;;;;;;;5.47;3.08;;;11.90;99.90;;;;;;5012028;28;20363;-57
2022/08/08 04:58:15;;;;;;;5.43;3.85;;;11.90;99.90;;;;;;5016396;28;20013;-57
2022/08/08 05:00:41;;;;;;;6.38;3.38;;;11.90;99.90;;;;;;5013343;28;20406;-56
2022/08/08 05:03:07;;;;;;;7.82;3.85;;;11.90;99.90;;;;;;5014612;28;20034;-58
2022/08/08 05:05:33;;;;;;;6.03;4.07;;;12.00;99.90;;;;;;5011561;28;20038;-59
2022/08/08 05:07:58;;;;;;;7.82;4.13;;;12.00;99.90;;;;;;5011674;28;20042;-58
2022/08/08 05:10:28;;;;;;;6.22;3.83;;;12.10;99.90;;;;;;5013763;28;20026;-57
2022/08/08 05:12:55;;;;;;;8.60;3.83;;;12.00;99.90;;;;;;5008139;28;20041;-57
2022/08/08 05:15:20;;;;;;;4.85;3.63;;;12.00;99.90;;;;;;5016856;28;20053;-58
2022/08/08 05:17:46;;;;;;;5.53;3.88;;;12.00;99.90;;;;;;5015055;28;20065;-57
2022/08/08 05:20:12;;;;;;;7.68;3.45;;;12.10;99.90;;;;;;5018904;28;20072;-57
2022/08/08 05:22:37;;;;;;;6.03;4.75;;;12.10;99.90;;;;;;5016438;28;20030;-58
2022/08/08 05:25:04;;;;;;;8.65;4.07;;;12.10;99.90;;;;;;5008189;28;20034;-59
2022/08/08 05:27:30;;;;;;;5.15;3.67;;;12.30;99.90;;;;;;5006296;28;20041;-58
2022/08/08 05:29:55;;;;;;;6.18;3.90;;;12.20;99.90;;;;;;5012299;28;20364;-57
2022/08/08 05:32:21;;;;;;;6.78;3.78;;;12.30;99.90;;;;;;5002879;28;20038;-57
2022/08/08 05:34:49;;;;;;;6.53;4.22;;;12.40;99.90;;;;;;5019358;28;20455;-57
2022/08/08 05:37:23;;;;;;;7.82;4.57;;;12.50;99.90;;;;;;5013756;28;20109;-57
2022/08/08 05:39:51;;;;;;;10.73;4.10;;;12.60;99.90;;;;;;5000160;28;20057;-57
2022/08/08 05:42:16;;;;;;;5.55;4.53;;;12.60;99.90;;;;;;5007141;28;20022;-57
2022/08/08 05:44:48;;;;;;;5.28;3.83;;;12.70;99.90;;;;;;5014683;28;20072;-57
2022/08/08 05:47:15;;;;;;;7.47;3.95;;;12.70;99.90;;;;;;5010022;28;20041;-58
2022/08/08 05:49:43;;;;;;;13.57;5.20;;;12.80;99.90;;;;;;5015608;28;20045;-58
2022/08/08 05:52:09;;;;;;;6.05;4.20;;;12.80;99.90;;;;;;5005483;28;20030;-59
2022/08/08 05:54:35;;;;;;;12.35;4.38;;;12.90;99.90;;;;;;5010514;28;20068;-58
2022/08/08 05:57:01;;;;;;;18.02;4.88;;;13.00;99.90;;;;;;5016908;28;20033;-57
2022/08/08 05:59:32;;;;;;;8.60;4.65;;;13.00;99.90;;;;;;5020171;28;20025;-57
2022/08/08 06:01:58;;;;;;;6.18;3.83;;;13.10;99.90;;;;;;5009362;28;20470;-58
2022/08/08 06:04:28;;;;;;;7.65;4.32;;;13.10;99.90;;;;;;5010540;28;20136;-58
2022/08/08 06:06:56;;;;;;;10.57;4.18;;;13.10;99.90;;;;;;5007692;28;20084;-58
2022/08/08 06:09:27;;;;;;;10.57;3.75;;;13.30;99.90;;;;;;5011147;28;20034;-57
2022/08/08 06:12:00;;;;;;;8.63;4.38;;;13.40;99.90;;;;;;5011237;28;20062;-58
2022/08/08 06:14:26;;;;;;;;;;;13.50;99.90;;;;;;5005566;28;20026;-57
2022/08/08 06:16:59;;;;;;;5.82;3.88;;;13.50;99.90;;;;;;5000777;28;19909;-57
2022/08/08 06:19:25;;;;;;;5.32;3.92;;;13.50;99.90;;;;;;5012786;28;20029;-59
2022/08/08 06:21:52;;;;;;;6.38;4.60;;;13.60;99.90;;;;;;5007420;28;20025;-58
2022/08/08 06:24:18;;;;;;;9.57;4.30;;;13.70;99.90;;;;;;5008757;28;20029;-57
2022/08/08 06:27:03;;;;;;;11.13;4.35;;;13.70;99.90;;;;;;5009837;28;20028;-59
2022/08/08 06:29:45;;;;;;;7.45;4.10;;;13.80;99.90;;;;;;5009989;28;20132;-57
2022/08/08 06:32:15;;;;;;;7.50;3.72;;;13.90;99.90;;;;;;5015630;28;20490;-59
2022/08/08 06:34:45;;;;;;;9.85;4.63;;;13.90;99.90;;;;;;5017200;28;20482;-57
2022/08/08 06:37:13;;;;;;;8.77;4.65;;;14.00;99.90;;;;;;5013204;28;20363;-57
2022/08/08 06:39:43;;;;;;;7.20;3.75;;;14.00;99.90;;;;;;5012498;28;20472;-58
2022/08/08 06:42:13;;;;;;;6.78;3.47;;;14.10;99.90;;;;;;5013025;28;20101;-58
2022/08/08 06:44:41;;;;;;;6.50;3.78;;;14.20;99.90;;;;;;5013806;28;20061;-57
2022/08/08 06:47:07;;;;;;;7.22;4.38;;;14.20;99.90;;;;;;5004658;28;20540;-61
2022/08/08 06:49:33;;;;;;;6.38;4.53;;;14.30;99.90;;;;;;5012895;28;20128;-58
2022/08/08 06:51:59;;;;;;;7.82;3.92;;;14.30;99.90;;;;;;5009214;28;20030;-58
2022/08/08 06:54:26;;;;;;;7.65;4.88;;;14.40;99.90;;;;;;5018338;28;20033;-58
2022/08/08 06:56:53;;;;;;;8.05;4.65;;;14.40;99.90;;;;;;5009560;28;20022;-59
2022/08/08 06:59:19;;;;;;;9.50;4.70;;;14.50;99.90;;;;;;5009217;28;20029;-58
2022/08/08 07:01:53;;;;;;;7.43;3.78;;;14.60;99.90;;;;;;5012982;28;20548;-58
2022/08/08 07:04:35;;;;;;;6.32;4.00;;;14.80;99.90;;;;;;5008541;28;20026;-60
2022/08/08 07:07:03;;;;;;;6.68;3.78;;;14.80;99.90;;;;;;5009130;28;20042;-59
2022/08/08 07:09:57;;;;;;;13.57;4.43;;;14.90;99.90;;;;;;5009271;28;20034;-57
2022/08/08 07:12:44;;;;;;;6.93;4.10;;;14.90;99.90;;;;;;5007017;28;20029;-58
2022/08/08 07:15:14;;;;;;;6.28;2.70;;;15.00;99.90;;;;;;5011304;28;20018;-59
2022/08/08 07:17:49;;;;;;;10.55;3.72;;;15.00;99.90;;;;;;5012558;28;20486;-60
2022/08/08 07:20:26;;;;;;;4.65;3.13;;;15.20;99.90;;;;;;5008892;28;20034;-57
2022/08/08 07:23:15;;;;;;;6.95;4.47;;;15.30;99.90;;;;;;5009978;28;20490;-58
2022/08/08 07:25:43;;;;;;;4.93;3.42;;;15.40;99.90;;;;;;5008335;28;20070;-57
2022/08/08 07:28:22;;;;;;;5.65;3.03;;;15.50;99.90;;;;;;5011811;28;20034;-59
2022/08/08 07:30:48;;;;;;;8.27;3.90;;;15.60;99.90;;;;;;5008513;28;20029;-58
2022/08/08 07:33:15;;;;;;;4.25;3.20;;;15.70;99.90;;;;;;5006976;28;20040;-58
2022/08/08 07:35:41;;;;;;;8.82;3.83;;;15.70;99.90;;;;;;5008916;28;20033;-60
2022/08/08 07:38:10;;;;;;;10.55;3.63;;;15.80;99.90;;;;;;5013058;28;20080;-58
2022/08/08 07:40:36;;;;;;;4.25;3.70;;;15.90;99.90;;;;;;5006950;28;20037;-58
2022/08/08 07:43:03;;;;;;;6.72;3.70;;;16.00;99.90;;;;;;5010667;28;20049;-58
2022/08/08 07:45:30;;;;;;;7.18;3.60;;;16.10;99.90;;;;;;5017981;28;20370;-57
2022/08/08 07:47:57;;;;;;;8.73;3.30;;;16.20;99.90;;;;;;5010860;28;20037;-59
2022/08/08 07:50:24;;;;;;;6.40;4.00;;;16.30;99.90;;;;;;5012815;28;20025;-59
2022/08/08 07:52:54;;;;;;;8.93;3.58;;;16.40;99.90;;;;;;5016609;28;20025;-58
2022/08/08 07:55:32;;;;;;;7.10;3.53;;;16.50;99.90;;;;;;5013709;28;20030;-57
2022/08/08 07:58:20;;;;;;;5.10;3.50;;;16.60;99.90;;;;;;5015335;28;20038;-59
2022/08/08 08:00:50;;;;;;;10.70;3.67;;;16.70;99.90;;;;;;5004253;28;20068;-58
2022/08/08 08:03:29;;;;;;;6.50;3.33;;;16.90;99.90;;;;;;5017845;28;20089;-59
2022/08/08 08:05:56;;;;;;;6.47;3.03;;;16.90;99.90;;;;;;5006334;28;20034;-57
2022/08/08 08:08:28;;;;;;;7.63;3.45;;;17.00;99.90;;;;;;5012247;28;20042;-59
2022/08/08 08:10:56;;;;;;;4.55;3.10;;;17.10;99.90;;;;;;5009420;28;20036;-58
2022/08/08 08:13:40;;;;;;;5.35;2.78;;;17.20;99.90;;;;;;5011447;28;20034;-58
2022/08/08 08:16:08;;;;;;;8.20;2.80;;;17.30;99.90;;;;;;5005305;28;20093;-59
2022/08/08 08:18:46;;;;;;;5.53;3.03;;;17.40;99.90;;;;;;5015871;28;20080;-58
2022/08/08 08:21:12;;;;;;;5.40;2.58;;;17.60;99.90;;;;;;5013035;28;20493;-58
2022/08/08 08:23:38;;;;;;;10.35;2.65;;;17.70;99.90;;;;;;5003772;28;20045;-57
2022/08/08 08:26:04;;;;;;;7.05;2.88;;;17.90;99.90;;;;;;5007025;28;20026;-58
2022/08/08 08:28:29;;;;;;;8.18;2.80;;;18.10;99.90;;;;;;5009851;28;20041;-59
2022/08/08 08:30:57;;;;;;;5.30;2.90;;;18.30;99.90;;;;;;5010805;28;21374;-59
2022/08/08 08:33:23;;;;;;;2.15;1.73;;;18.40;99.90;;;;;;5012731;28;20497;-58
2022/08/08 08:35:49;;;;;;;3.05;2.10;;;18.70;99.90;;;;;;5009223;28;20490;-57
2022/08/08 08:38:15;;;;;;;8.68;2.47;;;18.70;99.90;;;;;;4993270;28;20030;-59
2022/08/08 08:40:41;;;;;;;6.60;2.15;;;18.80;99.90;;;;;;5001856;28;20773;-58
2022/08/08 08:43:09;;;;;;;4.80;2.40;;;18.80;99.90;;;;;;5008282;28;20061;-58
2022/08/08 08:45:36;;;;;;;8.80;2.10;;;19.00;99.90;;;;;;5009205;28;20153;-61
2022/08/08 08:48:02;;;;;;;6.55;2.50;;;19.10;99.90;;;;;;5002620;28;20078;-59
2022/08/08 08:50:29;;;;;;;4.65;2.10;;;19.10;99.90;;;;;;5008584;28;20026;-58
2022/08/08 08:52:58;;;;;;;3.83;1.90;;;19.20;99.90;;;;;;4998569;28;20142;-59
2022/08/08 08:55:25;;;;;;;7.57;2.22;;;19.20;99.90;;;;;;5007426;28;20033;-58
2022/08/08 08:57:54;;;;;;;5.90;3.10;;;19.30;99.90;;;;;;5005776;28;20061;-59
2022/08/08 09:00:20;;;;;;;9.35;3.17;;;19.40;99.90;;;;;;5007849;28;20025;-58
2022/08/08 09:02:49;;;;;;;11.15;2.72;;;19.70;99.90;;;;;;5004797;28;20037;-58
2022/08/08 09:05:15;;;;;;;5.20;2.10;;;19.90;99.90;;;;;;5006905;28;20409;-58
2022/08/08 09:07:43;;;;;;;3.80;2.42;;;20.10;99.90;;;;;;5003900;28;20457;-57
2022/08/08 09:10:13;;;;;;;7.18;2.42;;;20.30;99.90;;;;;;5002483;28;20030;-60
2022/08/08 09:12:40;;;;;;;6.00;2.10;;;20.50;99.90;;;;;;5005449;28;20085;-59
2022/08/08 09:15:06;;;;;;;7.50;2.38;;;20.50;99.90;;;;;;5007789;28;20475;-59
2022/08/08 09:17:33;;;;;;;2.72;1.80;;;20.60;99.90;;;;;;5004835;28;20402;-59
2022/08/08 09:19:59;;;;;;;5.90;2.10;;;20.80;99.90;;;;;;5002580;28;20034;-59
2022/08/08 09:22:25;;;;;;;4.53;1.77;;;20.90;99.90;;;;;;5007373;28;20029;-58
2022/08/08 09:24:53;;;;;;;9.63;2.67;;;21.00;99.90;;;;;;5008144;28;20030;-58
2022/08/08 09:27:19;;;;;;;4.32;1.83;;;21.10;99.90;;;;;;5001609;28;20029;-59
2022/08/08 09:29:52;;;;;;;4.35;2.22;;;21.30;99.90;;;;;;5008541;28;20589;-58
2022/08/08 09:32:39;;;;;;;4.60;1.63;;;21.60;99.90;;;;;;5006532;28;20030;-61
2022/08/08 09:35:13;;;;;;;3.70;2.15;;;21.80;99.90;;;;;;5002496;28;20086;-60
2022/08/08 09:37:52;;;;;;;6.50;2.20;;;22.00;99.90;;;;;;5003532;28;21557;-57
2022/08/08 09:40:25;;;;;;;5.28;2.15;;;22.20;99.90;;;;;;5006819;28;20030;-58
2022/08/08 09:43:19;;;;;;;5.30;2.17;;;22.40;99.90;;;;;;5004417;28;20045;-62
2022/08/08 09:46:01;;;;;;;5.63;2.45;;;22.40;99.90;;;;;;5000032;28;20390;-58
2022/08/08 09:48:32;;;;;;;5.25;2.28;;;22.40;99.90;;;;;;5004444;28;20033;-60
2022/08/08 09:50:58;;;;;;;2.90;1.63;;;22.50;99.20;;;;;;5005213;28;20110;-59
2022/08/08 09:53:48;;;;;;;8.10;2.00;;;22.60;99.90;;;;;;5005813;28;20089;-60
2022/08/08 09:56:16;;;;;;;3.65;1.70;;;22.70;98.90;;;;;;5005336;28;20045;-57
2022/08/08 09:58:52;;;;;;;2.80;1.67;;;22.90;96.30;;;;;;5000475;28;20144;-58
2022/08/08 10:01:20;;;;;;;5.65;1.55;;;22.90;96.10;;;;;;5003597;28;20057;-59
2022/08/08 10:03:49;;;;;;;4.22;1.63;;;23.00;96.60;;;;;;5002816;28;20461;-59
2022/08/08 10:06:18;;;;;;;4.65;1.65;;;23.00;95.00;;;;;;5004578;28;20457;-58
2022/08/08 10:08:49;;;;;;;5.78;2.10;;;23.10;94.80;;;;;;5007065;28;20046;-58
2022/08/08 10:11:23;;;;;;;5.57;1.55;;;23.20;95.10;;;;;;5004626;28;20018;-59
2022/08/08 10:13:55;;;;;;;5.97;1.80;;;23.40;94.10;;;;;;5005138;28;20040;-58
2022/08/08 10:16:21;;;;;;;;;;;23.60;93.40;;;;;;5005985;28;20489;-59
2022/08/08 10:18:47;;;;;;;5.65;2.00;;;23.80;92.80;;;;;;5005515;28;19917;-61
2022/08/08 10:21:17;;;;;;;4.18;1.60;;;23.80;92.30;;;;;;5005517;28;20605;-59
2022/08/08 10:23:43;;;;;;;5.18;1.60;;;23.80;91.90;;;;;;5005411;28;20045;-58
2022/08/08 10:26:51;;;;;;;6.63;1.48;;;23.90;91.90;;;;;;5005952;28;20060;-59
2022/08/08 10:29:21;;;;;;;3.63;1.73;;;24.00;91.10;;;;;;5003832;28;20647;-59
2022/08/08 10:34:37;;;;;;;3.97;1.58;;;24.10;90.70;;;;;;5003077;28;20032;-57
2022/08/08 10:37:04;;;;;;;4.32;1.40;;;24.20;90.90;;;;;;5005155;28;20029;-58
2022/08/08 10:39:41;;;;;;;3.97;1.55;;;24.40;90.20;;;;;;5004669;28;20111;-59
2022/08/08 10:42:09;;;;;;;5.20;1.70;;;24.60;90.70;;;;;;5003170;28;20027;-59
2022/08/08 10:44:38;;;;;;;4.18;1.20;;;24.90;88.40;;;;;;5005038;28;20038;-58
2022/08/08 10:47:19;;;;;;;4.75;1.35;;;24.90;87.70;;;;;;5002926;28;20030;-58
2022/08/08 10:49:53;;;;;;;3.10;1.35;;;25.00;86.00;;;;;;5004292;28;20029;-58
2022/08/08 10:52:26;;;;;;;4.50;1.70;;;25.00;86.20;;;;;;5001908;28;20028;-59
2022/08/08 10:54:56;;;;;;;4.47;1.55;;;25.30;85.80;;;;;;5002983;28;20064;-59
2022/08/08 10:57:23;;;;;;;4.63;1.25;;;25.40;84.20;;;;;;5002573;28;20169;-58
2022/08/08 10:59:57;;;;;;;3.22;1.40;;;25.40;83.00;;;;;;5003108;28;20076;-58
2022/08/08 11:02:30;;;;;;;5.43;1.80;;;25.30;82.60;;;;;;5003028;28;20042;-60
2022/08/08 11:04:58;;;;;;;5.10;1.48;;;25.40;82.40;;;;;;5004272;28;20093;-57
2022/08/08 11:07:50;;;;;;;4.32;2.58;;;25.60;83.80;;;;;;5004624;28;20434;-57
2022/08/08 11:10:19;;;;;;;2.67;1.63;;;25.90;80.50;;;;;;5006516;28;20022;-58
2022/08/08 11:12:51;;;;;;;7.03;2.28;;;26.20;78.90;;;;;;5000042;28;20533;-58
2022/08/08 11:15:23;;;;;;;4.82;1.52;;;26.90;77.30;;;;;;5009842;28;20081;-57
2022/08/08 11:17:50;;;;;;;6.50;1.50;;;27.50;74.80;;;;;;5007132;28;20485;-58
2022/08/08 11:20:17;;;;;;;5.28;1.98;;;28.00;72.90;;;;;;5009859;28;20421;-59
2022/08/08 11:22:45;;;;;;;3.25;1.90;;;28.00;70.20;;;;;;5007223;28;20557;-58
2022/08/08 11:25:10;;;;;;;5.20;2.03;;;28.30;67.80;;;;;;5006289;28;20453;-58
2022/08/08 11:27:37;;;;;;;4.72;1.38;;;28.50;66.20;;;;;;5008071;28;20042;-58
2022/08/08 11:30:08;;;;;;;5.00;1.67;;;28.10;65.90;;;;;;5005558;28;20025;-59
2022/08/08 11:32:40;;;;;;;3.50;1.40;;;28.30;64.90;;;;;;5006942;28;20034;-58
2022/08/08 11:35:11;;;;;;;5.28;1.50;;;28.50;65.20;;;;;;5006127;28;20470;-57
2022/08/08 11:37:40;;;;;;;3.38;1.33;;;28.80;64.60;;;;;;5008869;28;20037;-55
2022/08/08 11:40:10;;;;;;;3.42;1.23;;;29.00;63.30;;;;;;5006156;28;20474;-57
2022/08/08 11:42:37;;;;;;;5.43;1.60;;;28.60;62.80;;;;;;5005281;28;20058;-59
2022/08/08 11:45:08;;;;;;;4.93;1.50;;;28.20;63.80;;;;;;4997231;28;20104;-59
2022/08/08 11:47:34;;;;;;;3.13;1.30;;;27.70;65.40;;;;;;5000553;28;20061;-60
2022/08/08 11:50:06;;;;;;;2.80;1.33;;;27.80;66.50;;;;;;5002854;28;20117;-58
2022/08/08 11:52:34;;;;;;;3.00;1.30;;;27.80;65.20;;;;;;5004300;28;20046;-58
2022/08/08 11:54:59;;;;;;;5.05;1.83;;;28.00;65.10;;;;;;5004435;28;20097;-58
2022/08/08 11:57:27;;;;;;;10.90;2.05;;;28.70;64.50;;;;;;5005841;28;20501;-58
2022/08/08 11:59:55;;;;;;;1.83;1.50;;;28.90;61.70;;;;;;5004691;28;20053;-59
2022/08/08 12:02:26;;;;;;;4.68;1.40;;;29.20;61.00;;;;;;5006482;28;20022;-58
2022/08/08 12:05:05;;;;;;;3.35;1.20;;;29.00;61.50;;;;;;5005627;28;20088;-59
2022/08/08 12:07:42;;;;;;;3.83;1.55;;;29.20;60.60;;;;;;5007687;28;20229;-58
2022/08/08 12:10:13;;;;;;;6.90;1.52;;;29.10;62.30;;;;;;5008072;28;20022;-59
2022/08/08 12:12:46;;;;;;;2.90;1.65;;;29.30;62.50;;;;;;5008275;28;20502;-59
2022/08/08 12:15:23;;;;;;;4.95;1.50;;;29.30;61.90;;;;;;5007959;28;20127;-58
2022/08/08 12:17:49;;;;;;;3.80;2.20;;;29.30;61.50;;;;;;5003927;28;20034;-59
2022/08/08 12:20:15;;;;;;;5.15;1.40;;;29.50;61.40;;;;;;5006972;28;20046;-58
2022/08/08 12:22:52;;;;;;;4.45;1.73;;;29.30;60.00;;;;;;5010950;28;20689;-59
2022/08/08 12:25:23;;;;;;;7.68;1.67;;;28.40;62.80;;;;;;5008582;28;20394;-57
2022/08/08 12:27:50;;;;;;;3.10;1.10;;;28.20;64.60;;;;;;5003800;28;20045;-58
2022/08/08 12:30:16;;;;;;;2.97;1.40;;;28.20;62.20;;;;;;5005026;28;20036;-57
2022/08/08 12:32:48;;;;;;;2.35;1.23;;;28.90;61.70;;;;;;5005356;28;20148;-59
2022/08/08 12:35:20;;;;;;;;;;;29.50;59.90;;;;;;5008812;28;20053;-58
2022/08/08 12:37:58;;;;;;;5.28;1.33;;;29.60;59.10;;;;;;5007177;28;20270;-58
2022/08/08 12:40:34;;;;;;;2.25;1.23;;;29.70;58.20;;;;;;5008291;28;20512;-58
2022/08/08 12:43:00;;;;;;;2.10;0.90;;;29.90;58.00;;;;;;5001273;28;20497;-58
2022/08/08 12:45:36;;;;;;;9.48;1.90;;;30.10;56.70;;;;;;5007482;28;20169;-60
2022/08/08 12:48:04;;;;;;;3.15;1.30;;;29.90;56.00;;;;;;5004564;28;20069;-58
2022/08/08 12:50:45;;;;;;;4.00;1.42;;;30.30;56.00;;;;;;5006553;28;20052;-58
2022/08/08 12:53:22;;;;;;;4.43;1.73;;;29.50;55.50;;;;;;5004521;28;20037;-59
2022/08/08 12:55:57;;;;;;;4.28;1.20;;;28.90;56.10;;;;;;5007534;28;20029;-59
2022/08/08 12:58:24;;;;;;;8.15;1.52;;;28.30;57.70;;;;;;5000165;28;20497;-58
2022/08/08 13:00:50;;;;;;;2.97;1.55;;;27.80;57.80;;;;;;5006555;28;20037;-59
2022/08/08 13:03:23;;;;;;;2.90;1.35;;;27.90;58.00;;;;;;5006837;28;20111;-57
2022/08/08 13:05:49;;;;;;;3.42;1.50;;;27.90;58.70;;;;;;5005391;28;20039;-58
2022/08/08 13:08:23;;;;;;;3.33;1.75;;;28.60;58.40;;;;;;5003341;28;20095;-56
2022/08/08 13:10:53;;;;;;;4.25;1.15;;;29.40;57.00;;;;;;5006652;28;20135;-60
2022/08/08 13:13:29;;;;;;;6.55;1.70;;;29.90;56.00;;;;;;5006383;28;20394;-57
2022/08/08 13:16:18;;;;;;;4.45;1.35;;;29.60;54.90;;;;;;5006667;28;20486;-58
2022/08/08 13:18:45;;;;;;;6.95;1.55;;;28.70;56.40;;;;;;5002776;28;20485;-58
2022/08/08 13:21:13;;;;;;;4.03;1.33;;;28.40;57.20;;;;;;5007053;28;20042;-58
2022/08/08 13:23:39;;;;;;;3.50;1.50;;;28.40;58.70;;;;;;5006596;28;20152;-59
2022/08/08 13:26:06;;;;;;;4.15;1.50;;;29.60;56.30;;;;;;5005492;28;20176;-58